KMRY/MRY METAR and TAF weather

Enter ICAO airport designator
Station Type Date Time Source
KMRY METAR 2020/01/29 03:24 UTC NOAA

KMRY 290324Z 00000KT 10SM CLR 12/11 A3030 RMK AO2 T01220106


Station Type Date Time Source
KMRY Decoded METAR 2020/01/29 03:24 UTC NOAA

MONTEREY PENINSULA AIRPORT, CA, United States (KMRY) 36-35N 121-51W 66M
Jan 28, 2020 - 10:24 PM EST / 2020.01.29 0324 UTC
Wind: Calm:0
Visibility: 10 mile(s):0
Sky conditions: clear
Temperature: 54.0 F (12.2 C)
Dew Point: 51.1 F (10.6 C)
Relative Humidity: 89%
Pressure (altimeter): 30.3 in. Hg (1026 hPa)
ob: KMRY 290324Z 00000KT 10SM CLR 12/11 A3030 RMK AO2 T01220106
cycle: 3

Station Type Date Time Source
KMRY TAF 2020/01/29 02:04 UTC NOAA

TAF
AMD KMRY 290202Z 2902/2924 29008KT P6SM SCT006 BKN250
TEMPO 2902/2903 5SM BR OVC006
FM290300 29004KT P6SM OVC006
FM290800 VRB03KT P6SM BKN015 BKN080
FM291100 11003KT P6SM OVC015
FM291700 10004KT P6SM BKN030

Example: see airport list